Time;durP1;ratioP1;P1;durP2;ratioP2;P2;SDS_P1;SDS_P2;PMS_P1;PMS_P2;Temp;Humidity;BMP_temperature;BMP_pressure;BME280_temperature;BME280_humidity;BME280_pressure;Samples;Min_cycle;Max_cycle;Signal;HPM_P1;HPM_P2
2023/06/22 00:01:49;;;;;;;4.18;2.38;;;;;;;23.04;61.91;99904.13;5089655;28;20036;-82
2023/06/22 00:04:15;;;;;;;3.35;2.35;;;;;;;22.93;62.52;99903.97;5089618;28;20032;-83
2023/06/22 00:06:40;;;;;;;3.10;2.38;;;;;;;23.00;63.22;99932.22;5089828;28;20028;-82
2023/06/22 00:09:06;;;;;;;4.10;2.28;;;;;;;22.87;62.87;99915.09;5084219;28;20031;-81
2023/06/22 00:11:33;;;;;;;3.88;2.13;;;;;;;22.97;63.04;99931.53;5089598;28;20032;-81
2023/06/22 00:13:59;;;;;;;4.20;2.35;;;;;;;22.64;64.06;99901.25;5109795;28;20473;-81
2023/06/22 00:16:25;;;;;;;6.28;2.47;;;;;;;22.73;64.21;99915.13;5110246;28;20448;-81
2023/06/22 00:18:51;;;;;;;2.92;1.85;;;;;;;22.49;63.61;99904.91;5109383;28;20039;-81
2023/06/22 00:21:16;;;;;;;3.95;1.63;;;;;;;22.67;63.32;99925.25;5108445;28;20028;-82
2023/06/22 00:23:42;;;;;;;2.75;1.65;;;;;;;22.63;63.88;99906.72;5110559;28;20477;-83
2023/06/22 00:26:07;;;;;;;4.90;2.40;;;;;;;22.81;63.82;99937.00;5110014;28;20028;-82
2023/06/22 00:28:33;;;;;;;3.55;2.00;;;;;;;22.63;64.32;99918.38;5110240;28;20027;-83
2023/06/22 00:31:00;;;;;;;3.83;2.67;;;;;;;22.74;63.27;99943.72;5108423;28;20035;-83
2023/06/22 00:33:26;;;;;;;2.95;2.10;;;;;;;22.75;63.31;99930.16;5102952;28;20024;-82
2023/06/22 00:35:53;;;;;;;4.85;2.50;;;;;;;22.78;63.50;99938.03;5089575;28;20039;-82
2023/06/22 00:38:19;;;;;;;3.15;2.35;;;;;;;22.83;62.65;99946.72;5089623;28;20032;-82
2023/06/22 00:40:45;;;;;;;6.05;3.63;;;;;;;22.85;62.52;99955.53;5090209;28;20113;-82
2023/06/22 00:43:10;;;;;;;3.00;2.15;;;;;;;22.69;62.12;99935.94;5089299;28;20440;-82
2023/06/22 00:45:36;;;;;;;3.25;2.13;;;;;;;22.67;61.95;99936.03;5091612;28;20048;-82
2023/06/22 00:48:03;;;;;;;3.92;2.08;;;;;;;22.54;62.34;99924.31;5091475;28;20028;-82
2023/06/22 00:50:33;;;;;;;2.58;2.03;;;;;;;22.62;63.02;99946.19;5109317;28;20023;-82
2023/06/22 00:53:00;;;;;;;4.05;2.33;;;;;;;22.46;63.69;99930.16;5108498;28;20055;-82
2023/06/22 00:55:27;;;;;;;3.67;2.42;;;;;;;22.45;63.88;99914.13;5091852;28;20040;-82
2023/06/22 00:57:55;;;;;;;3.72;2.17;;;;;;;22.18;64.52;99885.22;5101255;28;20019;-82
2023/06/22 01:00:24;;;;;;;2.55;1.95;;;;;;;22.60;64.71;99961.56;5113356;28;20114;-83
2023/06/22 01:02:51;;;;;;;5.80;2.70;;;;;;;22.32;65.45;99927.41;5114032;28;20036;-82
2023/06/22 01:05:18;;;;;;;3.72;2.00;;;;;;;22.31;65.85;99945.38;5113637;28;20030;-82
2023/06/22 01:08:08;;;;;;;3.13;1.88;;;;;;;22.22;66.33;99959.31;5113651;28;20070;-81
2023/06/22 01:10:43;;;;;;;5.03;1.73;;;;;;;22.25;66.57;99959.13;5093009;28;20482;-81
2023/06/22 01:13:33;;;;;;;2.85;1.95;;;;;;;22.04;67.88;99950.50;5092862;28;20028;-82
2023/06/22 01:16:01;;;;;;;2.47;1.88;;;;;;;22.18;67.67;99950.59;5093178;28;20036;-81
2023/06/22 01:18:29;;;;;;;2.67;1.65;;;;;;;22.14;67.75;99922.16;5093062;28;20028;-83
2023/06/22 01:20:57;;;;;;;4.47;3.15;;;;;;;21.97;68.37;99933.06;5094209;28;20497;-82
2023/06/22 01:23:29;;;;;;;4.22;2.40;;;;;;;21.94;69.12;99952.88;5074536;28;20035;-82
2023/06/22 01:26:28;;;;;;;3.65;2.20;;;;;;;21.83;69.92;99960.69;5092638;28;20115;-82
2023/06/22 01:28:57;;;;;;;4.60;2.60;;;;;;;21.83;69.73;99936.53;5093578;28;20036;-82
2023/06/22 01:31:26;;;;;;;6.13;2.88;;;;;;;21.92;69.33;99938.69;5093000;28;20040;-82
2023/06/22 01:33:55;;;;;;;4.20;2.42;;;;;;;21.92;69.16;99925.25;5073751;28;20032;-82
2023/06/22 01:36:22;;;;;;;4.22;2.60;;;;;;;22.08;68.69;99946.69;5092697;28;20089;-82
2023/06/22 01:38:49;;;;;;;8.00;2.40;;;;;;;22.16;68.50;99951.63;5093077;28;20038;-82
2023/06/22 01:41:15;;;;;;;3.53;2.45;;;;;;;22.00;68.50;99931.03;5094065;28;20486;-81
2023/06/22 01:43:42;;;;;;;4.82;3.25;;;;;;;21.93;68.46;99918.91;5102074;28;20040;-82
2023/06/22 01:46:08;;;;;;;5.05;3.08;;;;;;;21.93;68.49;99926.97;5092433;28;20039;-82
2023/06/22 01:48:34;;;;;;;10.55;3.45;;;;;;;22.06;67.65;99927.13;5111332;28;20566;-82
2023/06/22 01:51:00;;;;;;;5.93;3.72;;;;;;;21.91;67.59;99915.47;5112857;28;20115;-82
2023/06/22 01:53:25;;;;;;;3.65;2.67;;;;;;;21.93;68.42;99924.28;5112962;28;20114;-82
2023/06/22 01:55:51;;;;;;;9.07;3.47;;;;;;;21.87;68.15;99908.53;5087376;28;20122;-82
2023/06/22 01:58:16;;;;;;;6.45;2.70;;;;;;;21.95;68.16;99921.50;5092602;28;20036;-82
2023/06/22 02:00:50;;;;;;;5.03;2.78;;;;;;;22.15;68.36;99941.81;5092081;28;20379;-82
2023/06/22 02:03:22;;;;;;;4.93;3.25;;;;;;;22.15;68.52;99940.03;5104722;28;20032;-81
2023/06/22 02:05:52;;;;;;;7.47;2.60;;;;;;;22.15;68.63;99939.13;5111552;28;20032;-82
2023/06/22 02:08:34;;;;;;;4.13;2.47;;;;;;;22.00;68.38;99916.75;5092380;28;20035;-82
2023/06/22 02:11:02;;;;;;;3.42;1.83;;;;;;;22.02;68.42;99938.16;5091161;28;20032;-81
2023/06/22 02:13:28;;;;;;;5.03;3.08;;;;;;;22.07;68.33;99962.91;5089677;28;20389;-82
2023/06/22 02:15:54;;;;;;;8.60;2.95;;;;;;;21.96;68.05;99931.31;5112022;28;20043;-82
2023/06/22 02:18:20;;;;;;;5.85;3.22;;;;;;;22.03;68.24;99940.75;5111794;28;20390;-82
2023/06/22 02:20:46;;;;;;;5.72;2.72;;;;;;;21.97;68.17;99947.34;5111850;28;20404;-82
2023/06/22 02:23:11;;;;;;;4.80;3.38;;;;;;;22.11;67.51;99957.28;5110430;28;20027;-82
2023/06/22 02:25:37;;;;;;;5.32;2.35;;;;;;;21.95;67.27;99957.31;5111731;28;20481;-82
2023/06/22 02:28:03;;;;;;;4.32;2.85;;;;;;;21.93;67.39;99959.19;5112019;28;20043;-82
2023/06/22 02:30:28;;;;;;;3.70;2.38;;;;;;;21.56;68.14;99947.88;5093726;28;20028;-82
2023/06/22 02:33:00;;;;;;;5.18;2.80;;;;;;;21.63;68.35;99961.84;5093432;28;20508;-82
2023/06/22 02:35:27;;;;;;;5.32;3.00;;;;;;;21.66;67.65;99960.78;5091473;28;20032;-82
2023/06/22 02:37:52;;;;;;;3.55;2.15;;;;;;;21.53;67.77;99939.16;5091196;28;20024;-81
2023/06/22 02:40:18;;;;;;;4.05;2.50;;;;;;;21.73;66.93;99962.19;5098544;28;20437;-82
2023/06/22 02:42:43;;;;;;;4.20;2.63;;;;;;;21.40;66.89;99906.75;5092751;28;20500;-82
2023/06/22 02:45:09;;;;;;;4.03;2.05;;;;;;;21.49;67.47;99950.97;5092060;28;20063;-82
2023/06/22 02:47:35;;;;;;;3.97;2.28;;;;;;;21.59;67.51;99962.97;5081512;28;20047;-82
2023/06/22 02:50:01;;;;;;;4.05;2.90;;;;;;;21.46;67.95;99930.56;5111780;28;20126;-82
2023/06/22 02:52:26;;;;;;;3.97;2.60;;;;;;;21.50;68.68;99963.47;5111590;28;20062;-82
2023/06/22 02:54:52;;;;;;;4.45;2.83;;;;;;;21.46;68.59;99955.56;5111399;28;20485;-82
2023/06/22 02:57:17;;;;;;;11.30;2.50;;;;;;;21.41;69.09;99960.34;5109757;28;20032;-82
2023/06/22 02:59:43;;;;;;;5.72;3.55;;;;;;;21.50;69.28;99969.69;5110654;28;20455;-81
2023/06/22 03:02:09;;;;;;;12.60;2.72;;;;;;;21.36;69.47;99958.84;5110539;28;20125;-82
2023/06/22 03:04:35;;;;;;;8.30;3.28;;;;;;;21.41;70.22;99987.16;5082210;28;20044;-82
2023/06/22 03:07:01;;;;;;;5.03;2.58;;;;;;;21.34;69.68;99948.19;5090313;28;20552;-81
2023/06/22 03:09:27;;;;;;;5.55;2.85;;;;;;;21.35;70.10;99971.41;5105328;28;20139;-82
2023/06/22 03:11:56;;;;;;;6.75;3.50;;;;;;;21.31;70.28;99959.09;5106941;28;20166;-82
2023/06/22 03:14:21;;;;;;;5.60;3.63;;;;;;;21.44;69.99;99962.84;5090267;28;20036;-83
2023/06/22 03:16:47;;;;;;;4.47;3.30;;;;;;;21.63;70.02;99994.06;5109525;28;20024;-83
2023/06/22 03:19:13;;;;;;;5.10;2.65;;;;;;;21.46;70.38;99976.19;5094522;28;20043;-82
2023/06/22 03:21:39;;;;;;;4.45;2.33;;;;;;;21.53;70.98;99969.53;5071530;28;20602;-82
2023/06/22 03:24:08;;;;;;;4.45;3.13;;;;;;;21.58;70.85;99983.56;5090478;28;20218;-83
2023/06/22 03:26:34;;;;;;;7.63;2.85;;;;;;;21.61;71.43;99991.47;5090314;28;20101;-83
2023/06/22 03:29:00;;;;;;;4.00;2.72;;;;;;;21.62;71.63;99989.63;5100243;28;20043;-82
2023/06/22 03:31:25;;;;;;;5.47;3.00;;;;;;;21.67;71.60;99989.38;5109936;28;20131;-83
2023/06/22 03:33:51;;;;;;;4.55;2.28;;;;;;;21.69;71.54;99985.66;5109975;28;20468;-83
2023/06/22 03:36:22;;;;;;;4.20;2.47;;;;;;;21.89;71.06;100008.69;5108720;28;20039;-83
2023/06/22 03:38:48;;;;;;;19.85;4.68;;;;;;;21.97;71.22;100021.69;5108532;28;20115;-83
2023/06/22 03:41:14;;;;;;;3.88;2.40;;;;;;;21.90;71.07;99983.53;5109794;28;20047;-83
2023/06/22 03:43:39;;;;;;;9.82;4.85;;;;;;;22.12;71.14;100001.09;5110464;28;20151;-82
2023/06/22 03:46:05;;;;;;;8.15;3.53;;;;;;;21.90;71.32;99959.38;5086777;28;20028;-83
2023/06/22 03:48:31;;;;;;;7.13;3.50;;;;;;;22.27;70.87;100008.25;5075036;28;20413;-83
2023/06/22 03:50:56;;;;;;;5.63;3.55;;;;;;;21.98;71.75;99983.09;5094016;28;20031;-83
2023/06/22 03:53:22;;;;;;;7.28;4.40;;;;;;;22.05;71.39;99972.88;5110421;28;20473;-83
2023/06/22 03:55:52;;;;;;;11.75;4.63;;;;;;;22.16;71.26;99984.72;5110030;28;20169;-83
2023/06/22 03:58:18;;;;;;;11.60;3.60;;;;;;;22.32;71.57;100008.91;5110001;28;20019;-83
2023/06/22 04:00:48;;;;;;;6.93;3.92;;;;;;;22.21;71.14;99960.25;5110458;28;20024;-83
2023/06/22 04:03:14;;;;;;;11.75;5.55;;;;;;;22.46;71.13;100001.84;5108175;28;20042;-83
2023/06/22 04:05:41;;;;;;;6.93;4.22;;;;;;;22.61;70.36;100003.59;5117192;28;20027;-83
2023/06/22 04:08:06;;;;;;;17.90;6.90;;;;;;;22.73;70.29;99998.47;5110309;28;20397;-83
2023/06/22 04:10:33;;;;;;;11.98;6.47;;;;;;;22.72;70.20;99989.50;5130317;28;20026;-83
2023/06/22 04:13:00;;;;;;;6.25;4.07;;;;;;;22.81;69.16;99990.78;5115521;28;20035;-84
2023/06/22 04:15:25;;;;;;;7.22;3.97;;;;;;;22.61;69.64;99967.81;5114270;28;20038;-83
2023/06/22 04:17:53;;;;;;;8.07;4.18;;;;;;;22.73;69.65;99991.25;5132318;28;20023;-83
2023/06/22 04:20:18;;;;;;;8.00;4.22;;;;;;;22.55;70.27;100017.41;5125989;28;20031;-84
2023/06/22 04:22:45;;;;;;;7.57;3.97;;;;;;;22.56;69.52;99975.28;5109808;28;20035;-84
2023/06/22 04:25:10;;;;;;;7.00;5.20;;;;;;;22.94;68.46;100007.91;5132394;28;20035;-83
2023/06/22 04:27:40;;;;;;;6.25;4.07;;;;;;;23.00;68.05;99993.19;5112205;28;20072;-82
2023/06/22 04:30:08;;;;;;;4.47;2.80;;;;;;;23.40;67.02;100012.25;5104561;28;20023;-86
2023/06/22 04:33:00;;;;;;;6.80;4.63;;;;;;;23.67;66.63;100016.84;5101430;28;20023;-87
2023/06/22 04:35:26;;;;;;;5.30;3.90;;;;;;;23.35;66.24;99976.72;5110522;28;20055;-88
2023/06/22 04:37:54;;;;;;;5.78;3.72;;;;;;;23.27;66.36;99987.97;5113100;28;20024;-87
2023/06/22 04:40:21;;;;;;;9.10;4.50;;;;;;;22.68;67.77;99969.16;5109558;28;20020;-85
2023/06/22 04:42:52;;;;;;;5.95;4.03;;;;;;;22.66;69.24;100014.09;5108584;27;20048;-86
2023/06/22 04:45:17;;;;;;;5.80;3.78;;;;;;;22.88;69.12;100011.84;5112484;28;20655;-86
2023/06/22 04:47:45;;;;;;;8.40;5.07;;;;;;;22.93;68.77;100014.25;5124961;28;20035;-86
2023/06/22 04:50:14;;;;;;;6.68;4.60;;;;;;;23.20;68.85;100000.06;5132690;28;20028;-86
2023/06/22 04:52:40;;;;;;;6.95;4.78;;;;;;;23.28;66.09;100016.59;5121815;27;20073;-88
2023/06/22 04:55:06;;;;;;;7.43;4.18;;;;;;;23.14;67.15;99984.28;5131517;28;20028;-87
2023/06/22 04:57:34;;;;;;;5.15;3.25;;;;;;;23.47;66.25;99994.75;5133740;28;20058;-86
2023/06/22 05:00:13;;;;;;;4.43;3.85;;;;;;;23.70;64.28;100022.91;5130548;28;20064;-86
2023/06/22 05:02:41;;;;;;;9.65;5.22;;;;;;;23.49;65.98;99982.06;5139186;28;20026;-87
2023/06/22 05:05:08;;;;;;;7.03;5.03;;;;;;;23.89;64.88;100014.50;5126984;28;20160;-87
2023/06/22 05:07:34;;;;;;;6.47;4.07;;;;;;;24.15;64.46;100000.31;5126752;28;20019;-86
2023/06/22 05:10:01;;;;;;;7.20;4.50;;;;;;;23.94;63.95;99987.28;5139292;28;20020;-89
2023/06/22 05:12:28;;;;;;;12.07;5.57;;;;;;;23.95;63.94;99962.06;5139733;28;20549;-88
2023/06/22 05:14:54;;;;;;;10.60;3.88;;;;;;;24.23;63.36;99982.63;5138839;28;20012;-88
2023/06/22 05:17:19;;;;;;;9.63;5.07;;;;;;;24.36;62.13;99995.28;5136108;27;20085;-89
2023/06/22 05:19:48;;;;;;;8.07;4.10;;;;;;;24.59;62.42;99970.34;5105785;28;20465;-90
2023/06/22 05:22:15;;;;;;;9.13;5.35;;;;;;;24.81;61.01;99980.50;5110985;28;20019;-89
2023/06/22 05:24:40;;;;;;;7.28;4.60;;;;;;;25.07;60.78;99983.22;5102369;27;20027;-88
2023/06/22 05:27:06;;;;;;;9.50;4.53;;;;;;;25.07;59.25;99972.41;5107470;27;20027;-87
2023/06/22 05:29:32;;;;;;;13.07;4.53;;;;;;;25.31;59.73;99952.75;5097206;27;20072;-87
2023/06/22 05:31:57;;;;;;;9.38;5.90;;;;;;;25.53;58.10;99949.34;5098865;28;20516;-86
2023/06/22 05:34:23;;;;;;;6.38;4.03;;;;;;;25.73;57.65;99964.97;5094783;28;20027;-87
2023/06/22 05:36:49;;;;;;;8.85;4.13;;;;;;;26.37;56.62;99971.03;5102697;28;20020;-87
2023/06/22 05:39:15;;;;;;;5.75;4.07;;;;;;;26.51;55.50;99924.00;5107551;28;20054;-86
2023/06/22 05:41:43;;;;;;;9.02;4.57;;;;;;;27.02;54.80;99993.97;5110812;28;20488;-87
2023/06/22 05:44:09;;;;;;;9.13;4.75;;;;;;;26.94;55.11;99978.34;5108185;28;20147;-87
2023/06/22 05:46:34;;;;;;;6.03;4.05;;;;;;;26.57;56.16;99983.91;5112683;28;20039;-87
2023/06/22 05:49:00;;;;;;;13.85;3.80;;;;;;;27.04;55.42;99974.91;5090582;28;20111;-87
2023/06/22 05:51:25;;;;;;;9.55;5.13;;;;;;;27.16;53.38;99995.59;5101191;28;20070;-87
2023/06/22 05:53:51;;;;;;;6.97;4.03;;;;;;;27.35;54.23;99958.94;5111844;28;21426;-87
2023/06/22 05:56:17;;;;;;;9.00;3.70;;;;;;;27.90;52.60;99950.81;5112747;28;20036;-88
2023/06/22 05:58:43;;;;;;;7.57;4.63;;;;;;;27.43;51.97;99951.91;5110139;28;20074;-87
2023/06/22 06:01:08;;;;;;;7.22;4.53;;;;;;;27.74;51.84;99937.69;5088447;28;20052;-86
2023/06/22 06:03:33;;;;;;;6.45;4.55;;;;;;;28.10;51.67;99965.44;5103246;28;20036;-87
2023/06/22 06:05:59;;;;;;;7.45;2.88;;;;;;;28.65;51.09;100012.31;5088011;28;20039;-86
2023/06/22 06:08:25;;;;;;;6.10;3.97;;;;;;;28.62;49.51;99979.16;5100695;28;20032;-87
2023/06/22 06:10:52;;;;;;;6.25;3.60;;;;;;;27.90;50.19;99986.91;5099066;27;20404;-87
2023/06/22 06:13:18;;;;;;;10.15;4.68;;;;;;;28.23;51.63;99980.53;5093065;28;20024;-85
2023/06/22 06:15:44;;;;;;;7.70;4.60;;;;;;;28.64;51.30;100007.00;5102042;27;20092;-86
2023/06/22 06:18:09;;;;;;;5.53;3.83;;;;;;;29.01;50.21;99982.97;5095570;28;20477;-85
2023/06/22 06:20:35;;;;;;;6.18;3.13;;;;;;;29.22;50.17;99998.38;5106159;27;20504;-87
2023/06/22 06:23:01;;;;;;;7.43;5.22;;;;;;;29.23;48.78;99983.81;5079610;28;20462;-86
2023/06/22 06:25:27;;;;;;;7.10;3.85;;;;;;;29.57;48.78;99983.50;5103702;28;20089;-86
2023/06/22 06:27:54;;;;;;;5.65;4.18;;;;;;;29.92;48.67;99993.94;5099527;27;21024;-85
2023/06/22 06:30:20;;;;;;;5.57;4.05;;;;;;;30.08;47.81;99955.28;5103510;27;20043;-87
2023/06/22 06:32:47;;;;;;;6.18;3.53;;;;;;;29.49;47.08;99973.34;5092707;28;20063;-86
2023/06/22 06:35:16;;;;;;;5.50;4.50;;;;;;;29.19;49.07;99961.44;5097798;27;20035;-85
2023/06/22 06:37:43;;;;;;;8.07;3.95;;;;;;;29.81;48.13;99985.88;5130055;27;20035;-86
2023/06/22 06:40:11;;;;;;;6.53;4.13;;;;;;;29.29;47.99;99948.81;5106770;28;20020;-87
2023/06/22 06:42:40;;;;;;;7.57;3.65;;;;;;;29.22;47.48;99925.91;5104229;27;20101;-87
2023/06/22 06:45:06;;;;;;;6.55;3.40;;;;;;;29.28;48.05;99947.09;5089329;28;20036;-86
2023/06/22 06:47:32;;;;;;;5.32;3.47;;;;;;;29.43;49.45;99938.56;5091349;28;20063;-87
2023/06/22 06:49:57;;;;;;;5.28;3.50;;;;;;;29.93;45.90;99992.91;5090707;28;20066;-83
2023/06/22 06:52:23;;;;;;;5.93;3.47;;;;;;;30.10;47.90;99964.16;5090793;28;20032;-87
2023/06/22 06:54:48;;;;;;;6.82;4.57;;;;;;;30.44;46.76;99969.19;5090707;28;20032;-86
2023/06/22 06:57:15;;;;;;;7.32;4.10;;;;;;;30.91;45.70;99990.19;5093600;27;20020;-86
2023/06/22 06:59:41;;;;;;;9.15;4.10;;;;;;;31.45;45.87;99976.81;5113658;27;20032;-86
2023/06/22 07:02:07;;;;;;;7.05;5.10;;;;;;;30.95;45.59;99960.78;5119706;27;20031;-86
2023/06/22 07:04:33;;;;;;;5.70;3.53;;;;;;;31.46;44.22;99955.88;5119083;27;20030;-87
2023/06/22 07:07:01;;;;;;;4.95;2.92;;;;;;;32.11;43.98;99959.34;5119402;27;20428;-86
2023/06/22 07:09:26;;;;;;;5.25;3.72;;;;;;;32.83;41.01;99967.47;5115706;27;20034;-85
2023/06/22 07:11:52;;;;;;;5.68;2.63;;;;;;;32.07;43.88;99927.03;5129470;27;20031;-86
2023/06/22 07:14:17;;;;;;;5.43;3.33;;;;;;;32.15;41.00;99970.81;5113621;27;20023;-86
2023/06/22 07:16:42;;;;;;;7.15;4.07;;;;;;;32.49;42.32;99959.16;5121302;27;20433;-84
2023/06/22 07:19:11;;;;;;;5.10;3.38;;;;;;;32.49;42.46;99943.63;5102525;27;20027;-85
2023/06/22 07:21:36;;;;;;;5.05;3.22;;;;;;;32.38;39.68;99975.78;5099700;27;20027;-86
2023/06/22 07:24:02;;;;;;;6.75;3.45;;;;;;;32.47;40.36;99953.00;5073558;28;20429;-86
2023/06/22 07:26:27;;;;;;;5.38;3.53;;;;;;;33.16;40.63;99969.53;5090469;28;20020;-88
2023/06/22 07:28:53;;;;;;;5.15;3.28;;;;;;;32.95;39.17;99973.50;5096536;27;20536;-86
2023/06/22 07:31:18;;;;;;;6.28;3.65;;;;;;;33.04;39.96;99981.75;5109791;28;20495;-88
2023/06/22 07:33:44;;;;;;;4.95;2.60;;;;;;;32.78;38.18;99963.47;5110322;28;20452;-87
2023/06/22 07:36:09;;;;;;;3.90;2.47;;;;;;;33.04;39.24;99976.28;5110770;28;20057;-87
2023/06/22 07:38:35;;;;;;;6.78;2.75;;;;;;;33.16;39.08;99964.06;5110605;28;20031;-87
2023/06/22 07:41:01;;;;;;;4.07;2.30;;;;;;;32.53;36.91;99941.44;5110520;28;20038;-87
2023/06/22 07:43:26;;;;;;;6.70;3.20;;;;;;;33.03;37.88;99975.44;5110644;28;20105;-87
2023/06/22 07:45:52;;;;;;;4.85;3.15;;;;;;;33.29;38.17;99978.16;5110431;28;20605;-87
2023/06/22 07:48:20;;;;;;;5.78;3.38;;;;;;;33.47;38.18;99979.94;5110610;28;20126;-87
2023/06/22 07:50:45;;;;;;;4.07;2.70;;;;;;;32.87;35.07;99940.66;5110433;28;20028;-87
2023/06/22 07:53:11;;;;;;;4.32;2.88;;;;;;;32.66;35.65;99947.38;5110495;28;20020;-87
2023/06/22 07:55:36;;;;;;;4.05;2.42;;;;;;;32.62;36.28;99959.59;5110125;28;20425;-86
2023/06/22 07:58:01;;;;;;;5.30;3.35;;;;;;;32.22;38.06;99928.22;5110215;28;20084;-87
2023/06/22 08:00:27;;;;;;;5.57;3.33;;;;;;;32.99;36.91;99944.00;5110141;28;20032;-87
2023/06/22 08:02:52;;;;;;;4.88;2.70;;;;;;;32.97;36.81;99941.41;5110776;28;20047;-86
2023/06/22 08:05:18;;;;;;;5.20;2.97;;;;;;;33.02;34.77;99936.31;5110318;28;20024;-87
2023/06/22 08:07:44;;;;;;;4.63;2.45;;;;;;;33.17;35.72;99952.97;5109778;28;20020;-86
2023/06/22 08:10:13;;;;;;;5.78;2.97;;;;;;;33.13;34.16;99967.97;5110159;28;20399;-87
2023/06/22 08:12:40;;;;;;;11.38;2.90;;;;;;;32.79;34.60;99970.66;5110061;28;20111;-87
2023/06/22 08:15:07;;;;;;;5.57;2.72;;;;;;;32.98;34.45;99939.53;5110422;28;20519;-87
2023/06/22 08:17:32;;;;;;;4.47;3.20;;;;;;;32.87;35.48;99924.28;5110310;28;20032;-87
2023/06/22 08:19:58;;;;;;;6.03;2.67;;;;;;;32.85;37.27;99937.25;5109967;28;20035;-87
2023/06/22 08:22:23;;;;;;;11.18;3.03;;;;;;;33.10;34.41;99935.50;5110638;28;20027;-86
2023/06/22 08:24:49;;;;;;;3.83;2.25;;;;;;;32.77;34.30;99945.41;5112632;28;20024;-86
2023/06/22 08:27:16;;;;;;;4.72;2.60;;;;;;;32.75;34.89;99931.03;5110804;28;20115;-86
2023/06/22 08:29:42;;;;;;;4.28;2.40;;;;;;;32.69;34.86;99962.59;5110197;28;20028;-88
2023/06/22 08:32:11;;;;;;;7.45;3.40;;;;;;;33.18;34.31;99956.53;5110080;28;20039;-87
2023/06/22 08:34:42;;;;;;;5.55;2.95;;;;;;;33.29;33.46;99967.25;5110224;28;20024;-85
2023/06/22 08:37:08;;;;;;;4.78;3.15;;;;;;;33.20;34.76;99943.63;5109660;28;20035;-86
2023/06/22 08:39:34;;;;;;;5.05;2.55;;;;;;;33.70;35.05;99920.03;5109606;28;20055;-86
2023/06/22 08:42:00;;;;;;;7.03;3.72;;;;;;;34.37;34.45;99949.22;5109658;28;20055;-87
2023/06/22 08:44:25;;;;;;;12.75;2.72;;;;;;;34.13;33.13;99930.91;5109609;28;20086;-87
2023/06/22 08:46:51;;;;;;;5.07;2.97;;;;;;;34.55;35.00;99927.13;5109866;28;20024;-86
2023/06/22 08:49:16;;;;;;;2.72;2.05;;;;;;;34.73;33.46;99937.91;5109275;28;20031;-86
2023/06/22 08:51:41;;;;;;;4.35;2.40;;;;;;;34.75;32.22;99920.28;5109515;28;20072;-86
2023/06/22 08:54:07;;;;;;;6.10;3.28;;;;;;;35.48;35.38;99937.53;5109595;28;20036;-86
2023/06/22 08:56:32;;;;;;;3.75;2.63;;;;;;;35.32;29.84;99932.13;5109411;28;20092;-87
2023/06/22 08:58:58;;;;;;;4.15;2.38;;;;;;;35.54;28.78;99921.38;5109790;28;20353;-87
2023/06/22 09:01:23;;;;;;;7.18;2.70;;;;;;;35.35;31.99;99934.50;5100002;28;20050;-85
2023/06/22 09:03:54;;;;;;;3.50;2.13;;;;;;;35.60;28.74;99931.63;5109295;28;20503;-86
2023/06/22 09:06:21;;;;;;;6.63;2.53;;;;;;;35.59;31.03;99924.44;5105476;28;20012;-85
2023/06/22 09:08:47;;;;;;;4.32;1.85;;;;;;;35.61;30.64;99908.66;5108897;28;20481;-86
2023/06/22 09:11:12;;;;;;;3.13;2.22;;;;;;;35.00;29.64;99911.16;5113001;28;20043;-85
2023/06/22 09:13:38;;;;;;;3.13;2.28;;;;;;;34.94;29.12;99931.88;5099188;28;20031;-85
2023/06/22 09:16:04;;;;;;;4.32;2.53;;;;;;;34.94;28.39;99908.09;5089607;28;20477;-86
2023/06/22 09:18:29;;;;;;;4.90;2.70;;;;;;;35.35;29.92;99915.31;5088232;28;20115;-85
2023/06/22 09:20:55;;;;;;;3.25;2.53;;;;;;;35.23;29.54;99913.97;5090434;28;20028;-84
2023/06/22 09:23:20;;;;;;;2.50;1.55;;;;;;;34.71;28.68;99899.72;5092843;28;20134;-84
2023/06/22 09:25:47;;;;;;;4.45;2.55;;;;;;;35.26;28.39;99910.91;5092501;28;20470;-85
2023/06/22 09:28:13;;;;;;;4.28;2.83;;;;;;;35.03;28.46;99917.13;5092935;28;20107;-84
2023/06/22 09:30:39;;;;;;;3.42;2.13;;;;;;;35.39;28.90;99902.97;5080384;28;20393;-85
2023/06/22 09:33:04;;;;;;;1.92;1.50;;;;;;;35.27;29.36;99921.69;5112349;28;20046;-84
2023/06/22 09:35:30;;;;;;;5.93;4.30;;;;;;;35.18;26.80;99921.88;5099167;27;20105;-84
2023/06/22 09:37:55;;;;;;;3.90;2.47;;;;;;;35.58;29.01;99907.13;5096109;27;20058;-85
2023/06/22 09:40:21;;;;;;;3.63;2.55;;;;;;;36.14;27.89;99914.31;5101771;27;20028;-83
2023/06/22 09:42:46;;;;;;;4.55;2.38;;;;;;;36.36;26.05;99897.00;5117933;27;20047;-84
2023/06/22 09:45:12;;;;;;;6.20;2.63;;;;;;;36.74;26.14;99888.72;5118847;27;20032;-83
2023/06/22 09:47:37;;;;;;;6.07;3.55;;;;;;;36.83;25.42;99873.00;5109009;28;20023;-84
2023/06/22 09:50:03;;;;;;;4.72;2.33;;;;;;;36.89;26.28;99883.22;5096488;27;20050;-83
2023/06/22 09:52:29;;;;;;;7.97;2.63;;;;;;;37.12;25.63;99886.91;5093296;28;20039;-83
2023/06/22 09:54:54;;;;;;;4.40;2.10;;;;;;;36.67;26.99;99889.63;5087559;28;20036;-83
2023/06/22 09:57:20;;;;;;;6.28;3.20;;;;;;;36.48;24.74;99875.41;5101802;27;20024;-84
2023/06/22 09:59:45;;;;;;;4.47;2.53;;;;;;;36.54;25.32;99866.41;5086311;28;20035;-82
2023/06/22 10:02:11;;;;;;;4.05;2.15;;;;;;;37.04;24.39;99896.09;5105192;28;20428;-83
2023/06/22 10:04:39;;;;;;;3.35;2.17;;;;;;;36.78;25.60;99904.81;5107552;28;20096;-84
2023/06/22 10:07:05;;;;;;;4.00;2.63;;;;;;;36.04;26.68;99862.44;5100238;28;20027;-82
2023/06/22 10:09:30;;;;;;;5.75;2.75;;;;;;;36.39;27.67;99879.28;5101270;27;20365;-81
2023/06/22 10:11:56;;;;;;;3.72;2.60;;;;;;;36.95;27.49;99894.50;5103973;28;20042;-81
2023/06/22 10:14:21;;;;;;;5.78;3.00;;;;;;;35.14;30.93;99885.72;5111289;28;20020;-81
2023/06/22 10:16:48;;;;;;;3.20;1.98;;;;;;;35.23;30.09;99895.63;5097144;28;20047;-82
2023/06/22 10:19:13;;;;;;;4.68;2.20;;;;;;;35.69;29.65;99897.63;5111214;28;20123;-82
2023/06/22 10:21:39;;;;;;;5.70;2.45;;;;;;;36.04;27.38;99884.38;5111543;28;20165;-82
2023/06/22 10:24:08;;;;;;;6.35;3.10;;;;;;;36.08;27.28;99884.84;5112035;28;20027;-81
2023/06/22 10:26:35;;;;;;;4.93;2.75;;;;;;;35.32;28.74;99878.13;5111388;28;20056;-81
2023/06/22 10:29:02;;;;;;;4.10;2.10;;;;;;;35.41;29.44;99880.84;5111505;28;20031;-82
2023/06/22 10:31:28;;;;;;;5.15;2.50;;;;;;;35.67;27.99;99869.53;5111075;28;20097;-82
2023/06/22 10:33:54;;;;;;;7.57;2.60;;;;;;;36.26;28.19;99881.81;5111137;28;20059;-82
2023/06/22 10:36:21;;;;;;;3.40;2.55;;;;;;;36.83;29.50;99880.41;5111190;28;20039;-82
2023/06/22 10:38:47;;;;;;;3.60;2.20;;;;;;;37.00;27.82;99870.03;5111210;28;20108;-83
2023/06/22 10:41:13;;;;;;;6.43;3.50;;;;;;;36.49;28.51;99857.91;5093274;28;20503;-82
2023/06/22 10:43:39;;;;;;;9.10;3.13;;;;;;;36.08;27.61;99835.44;5111343;28;20479;-82
2023/06/22 10:46:04;;;;;;;5.70;2.45;;;;;;;35.83;27.29;99857.63;5111002;28;20019;-82
2023/06/22 10:48:30;;;;;;;4.97;3.38;;;;;;;35.61;29.26;99849.16;5111357;28;20028;-82
2023/06/22 10:50:55;;;;;;;5.55;3.53;;;;;;;35.61;28.42;99819.00;5093201;28;20036;-82
2023/06/22 10:53:21;;;;;;;4.03;2.60;;;;;;;35.90;27.50;99860.47;5111238;28;20024;-84
2023/06/22 10:55:47;;;;;;;2.80;1.95;;;;;;;35.80;28.23;99853.34;5111561;28;20039;-84
2023/06/22 10:58:12;;;;;;;4.22;2.88;;;;;;;35.53;28.46;99865.69;5111184;28;20028;-83
2023/06/22 11:00:38;;;;;;;5.43;3.25;;;;;;;36.01;27.72;99838.09;5104210;27;20036;-83
2023/06/22 11:03:03;;;;;;;4.00;2.58;;;;;;;36.49;27.20;99848.81;5105070;28;20024;-83
2023/06/22 11:05:29;;;;;;;5.85;3.50;;;;;;;36.57;25.70;99821.25;5091348;28;20032;-84
2023/06/22 11:07:55;;;;;;;3.95;2.80;;;;;;;36.51;24.87;99844.81;5090344;28;20564;-84
2023/06/22 11:10:20;;;;;;;6.10;2.85;;;;;;;36.36;26.56;99824.72;5090919;28;20119;-84
2023/06/22 11:12:46;;;;;;;6.45;3.55;;;;;;;36.71;26.64;99841.50;5090493;28;20067;-85
2023/06/22 11:15:12;;;;;;;3.78;2.40;;;;;;;36.46;25.36;99829.97;5090532;28;20034;-83
2023/06/22 11:17:37;;;;;;;4.07;3.13;;;;;;;36.65;26.20;99814.81;5071979;28;20405;-84
2023/06/22 11:20:10;;;;;;;4.50;2.63;;;;;;;36.87;24.96;99827.63;5090339;28;20081;-84
2023/06/22 11:22:39;;;;;;;5.53;2.90;;;;;;;36.76;24.47;99821.75;5071751;28;20590;-84
2023/06/22 11:25:05;;;;;;;3.25;2.42;;;;;;;36.28;25.76;99828.41;5090397;28;20020;-84
2023/06/22 11:27:31;;;;;;;4.10;2.33;;;;;;;36.16;26.35;99836.25;5090262;28;20032;-83
2023/06/22 11:29:56;;;;;;;4.50;2.72;;;;;;;36.18;25.61;99839.63;5089750;28;20087;-84